createdAt,value
2019-01-13T00:03:13.136Z,101444.29
2019-01-13T00:08:14.673Z,101452.61
2019-01-13T00:13:16.231Z,101444.29
2019-01-13T00:18:17.731Z,101439.97
2019-01-13T00:23:19.662Z,101438.84
2019-01-13T00:28:21.190Z,101436.80
2019-01-13T00:33:22.894Z,101424.13
2019-01-13T00:38:24.464Z,101425.91
2019-01-13T00:43:26.036Z,101421.38
2019-01-13T00:48:27.572Z,101418.06
2019-01-13T00:53:29.124Z,101410.98
2019-01-13T00:58:30.673Z,101396.20
2019-01-13T01:03:32.207Z,101392.78
2019-01-13T01:08:34.112Z,101398.19
2019-01-13T01:13:35.793Z,101402.59
2019-01-13T01:18:39.129Z,101403.09
2019-01-13T01:23:40.684Z,101404.98
2019-01-13T01:28:44.400Z,101384.63
2019-01-13T01:33:46.274Z,101365.02
2019-01-13T01:38:48.100Z,101354.25
2019-01-13T01:43:49.648Z,101346.88
2019-01-13T01:48:51.228Z,101329.07
2019-01-13T01:53:54.562Z,101318.67
2019-01-13T01:58:56.108Z,101320.56
2019-01-13T02:03:57.701Z,101324.66
2019-01-13T02:08:59.221Z,101337.91
2019-01-13T02:14:01.961Z,101334.48
2019-01-13T02:19:03.486Z,101345.75
2019-01-13T02:24:05.049Z,101337.58
2019-01-13T02:29:06.577Z,101342.00
2019-01-13T02:34:08.117Z,101357.88
2019-01-13T02:39:09.719Z,101352.31
2019-01-13T02:44:11.264Z,101345.77
2019-01-13T02:49:12.910Z,101329.77
2019-01-13T02:54:14.422Z,101311.52
2019-01-13T02:59:15.979Z,101302.36
2019-01-13T03:04:17.559Z,101290.52
2019-01-13T03:09:19.384Z,101295.48
2019-01-13T03:14:21.298Z,101292.30
2019-01-13T03:19:22.871Z,101287.90
2019-01-13T03:24:25.031Z,101284.70
2019-01-13T03:29:26.558Z,101274.95
2019-01-13T03:34:28.103Z,101260.99
2019-01-13T03:39:30.003Z,101258.27
2019-01-13T03:44:31.559Z,101234.33
2019-01-13T03:49:33.153Z,101247.47
2019-01-13T03:54:34.719Z,101220.91
2019-01-13T03:59:36.386Z,101203.89
2019-01-13T04:04:38.030Z,101195.64
2019-01-13T04:09:39.670Z,101195.64
2019-01-13T04:14:41.219Z,101187.45
2019-01-13T04:19:43.797Z,101181.51
2019-01-13T04:24:45.348Z,101179.77
2019-01-13T04:29:46.908Z,101157.61
2019-01-13T04:34:48.503Z,101148.61
2019-01-13T04:39:51.558Z,101115.96
2019-01-13T04:44:53.100Z,101095.03
2019-01-13T04:49:55.026Z,101086.83
2019-01-13T04:54:56.545Z,101088.30
2019-01-13T04:59:58.475Z,101089.76
2019-01-13T05:05:00.301Z,101087.30
2019-01-13T05:10:02.466Z,101075.17
2019-01-13T05:15:04.337Z,101074.17
2019-01-13T05:20:08.730Z,101067.43
2019-01-13T05:25:10.285Z,101062.69
2019-01-13T05:30:19.631Z,101069.80
2019-01-13T05:35:21.521Z,101073.66
2019-01-13T05:40:23.075Z,101066.52
2019-01-13T05:45:24.749Z,101053.48
2019-01-13T05:50:26.295Z,101054.79
2019-01-13T05:55:27.824Z,101051.02
2019-01-13T06:00:29.379Z,101051.91
2019-01-13T06:05:30.878Z,101052.31
2019-01-13T06:10:32.807Z,101039.72
2019-01-13T06:15:34.350Z,101041.65
2019-01-13T06:20:36.130Z,101039.12
2019-01-13T06:25:37.668Z,101024.22
2019-01-13T06:30:39.475Z,101021.95
2019-01-13T06:35:41.030Z,101032.02
2019-01-13T06:40:42.589Z,101020.84
2019-01-13T06:45:44.889Z,101019.39
2019-01-13T06:50:46.399Z,101009.41
2019-01-13T06:55:48.016Z,101024.71
2019-01-13T07:00:49.566Z,101017.31
2019-01-13T07:05:51.121Z,101020.37
2019-01-13T07:10:53.027Z,101018.34
2019-01-13T07:15:54.913Z,101003.01
2019-01-13T07:20:56.610Z,101012.43
2019-01-13T07:25:58.320Z,101013.48
2019-01-13T07:30:59.999Z,100995.62
2019-01-13T07:36:01.564Z,101014.82
2019-01-13T07:41:03.108Z,101010.34
2019-01-13T07:46:05.531Z,101006.77
2019-01-13T07:51:07.109Z,101008.88
2019-01-13T07:56:08.643Z,101001.38
2019-01-13T08:01:10.214Z,101010.20
2019-01-13T08:06:11.777Z,101009.67
2019-01-13T08:11:13.610Z,100994.08
2019-01-13T08:16:15.156Z,101001.88
2019-01-13T08:21:16.719Z,100996.64
2019-01-13T08:26:18.220Z,100992.21
2019-01-13T08:31:20.170Z,100981.73
2019-01-13T08:36:24.852Z,100967.33
2019-01-13T08:41:26.365Z,100968.59
2019-01-13T08:46:28.372Z,100973.70
2019-01-13T08:51:29.941Z,100973.70
2019-01-13T08:56:31.795Z,100949.81
2019-01-13T09:01:33.674Z,100941.14
2019-01-13T09:06:35.212Z,100928.86
2019-01-13T09:11:38.324Z,100945.30
2019-01-13T09:16:39.897Z,100941.64
2019-01-13T09:21:41.487Z,100937.30
2019-01-13T09:26:43.168Z,100943.00
2019-01-13T09:31:44.709Z,100931.56
2019-01-13T09:36:46.907Z,100944.08
2019-01-13T09:41:48.811Z,100928.72
2019-01-13T09:46:50.387Z,100922.17
2019-01-13T09:51:51.944Z,100922.58
2019-01-13T09:56:53.877Z,100910.38
2019-01-13T10:01:55.421Z,100899.06
2019-01-13T10:06:56.966Z,100899.97
2019-01-13T10:11:58.869Z,100893.01
2019-01-13T10:17:00.470Z,100897.15
2019-01-13T10:22:02.186Z,100884.46
2019-01-13T10:27:03.736Z,100884.60
2019-01-13T10:32:06.308Z,100858.33
2019-01-13T10:37:07.828Z,100860.13
2019-01-13T10:42:09.392Z,100854.08
2019-01-13T10:47:10.934Z,100849.97
2019-01-13T10:52:12.488Z,100834.84
2019-01-13T10:57:14.100Z,100834.39
2019-01-13T11:02:15.712Z,100825.41
2019-01-13T11:07:17.633Z,100823.28
2019-01-13T11:12:19.198Z,100803.41
2019-01-13T11:17:20.730Z,100804.09
2019-01-13T11:22:22.337Z,100785.75
2019-01-13T11:27:23.883Z,100782.36
2019-01-13T11:32:26.582Z,100778.79
2019-01-13T11:37:28.111Z,100772.70
2019-01-13T11:42:29.672Z,100768.59
2019-01-13T11:47:31.277Z,100751.69
2019-01-13T11:52:32.937Z,100745.27
2019-01-13T11:57:34.501Z,100741.92
2019-01-13T12:02:36.128Z,100751.95
2019-01-13T12:07:37.716Z,100736.69
2019-01-13T12:12:39.275Z,100730.63
2019-01-13T12:17:41.257Z,100711.56
2019-01-13T12:22:43.574Z,100706.81
2019-01-13T12:27:45.226Z,100681.09
2019-01-13T12:32:46.827Z,100687.16
2019-01-13T12:37:48.383Z,100682.82
2019-01-13T12:42:50.116Z,100677.09
2019-01-13T12:47:51.633Z,100667.51
2019-01-13T12:52:53.183Z,100671.20
2019-01-13T12:57:55.567Z,100652.85
2019-01-13T13:02:57.796Z,100646.18
2019-01-13T13:07:59.688Z,100634.70
2019-01-13T13:13:01.330Z,100621.61
2019-01-13T13:18:03.999Z,100621.41
2019-01-13T13:23:06.136Z,100628.73
2019-01-13T13:28:07.750Z,100624.76
2019-01-13T13:33:09.418Z,100618.12
2019-01-13T13:38:11.108Z,100614.20
2019-01-13T13:43:12.760Z,100613.75
2019-01-13T13:48:14.345Z,100593.08
2019-01-13T13:53:16.056Z,100612.72
2019-01-13T13:58:17.591Z,100616.29
2019-01-13T14:03:19.202Z,100605.81
2019-01-13T14:08:20.865Z,100604.50
2019-01-13T14:13:22.410Z,100613.67
2019-01-13T14:18:23.942Z,100587.47
2019-01-13T14:23:25.589Z,100586.16
2019-01-13T14:28:27.185Z,100583.78
2019-01-13T14:33:28.703Z,100586.89
2019-01-13T14:38:30.370Z,100580.80
2019-01-13T14:43:31.898Z,100572.69
2019-01-13T14:48:33.542Z,100574.61
2019-01-13T14:53:35.414Z,100590.81
2019-01-13T14:58:36.956Z,100552.57
2019-01-13T15:03:38.920Z,100550.52
2019-01-13T15:08:40.632Z,100557.56
2019-01-13T15:13:42.113Z,100561.65
2019-01-13T15:18:43.669Z,100549.97
2019-01-13T15:23:45.332Z,100564.05
2019-01-13T15:28:46.807Z,100576.48
2019-01-13T15:33:48.290Z,100577.88
2019-01-13T15:38:49.830Z,100580.84
2019-01-13T15:43:51.389Z,100563.67
2019-01-13T15:48:53.004Z,100580.72
2019-01-13T15:53:54.576Z,100565.89
2019-01-13T15:58:56.174Z,100561.36
2019-01-13T16:03:57.836Z,100566.89
2019-01-13T16:08:59.351Z,100556.59
2019-01-13T16:14:00.986Z,100553.84
2019-01-13T16:19:02.511Z,100560.69
2019-01-13T16:24:04.095Z,100536.89
2019-01-13T16:29:05.650Z,100549.02
2019-01-13T16:34:07.501Z,100534.94
2019-01-13T16:39:09.509Z,100532.06
2019-01-13T16:44:11.029Z,100510.69
2019-01-13T16:49:12.577Z,100525.17
2019-01-13T16:54:14.149Z,100515.63
2019-01-13T16:59:15.694Z,100526.72
2019-01-13T17:04:17.599Z,100522.66
2019-01-13T17:09:19.089Z,100517.72
2019-01-13T17:14:20.641Z,100517.45
2019-01-13T17:19:22.243Z,100517.86
2019-01-13T17:24:23.773Z,100521.09
2019-01-13T17:29:25.315Z,100523.69
2019-01-13T17:34:26.822Z,100525.34
2019-01-13T17:39:28.371Z,100519.45
2019-01-13T17:44:29.904Z,100516.65
2019-01-13T17:49:31.541Z,100519.08
2019-01-13T17:54:33.049Z,100533.98
2019-01-13T17:59:34.635Z,100584.78
2019-01-13T18:04:42.883Z,100536.98
2019-01-13T18:09:39.690Z,100538.08
2019-01-13T18:14:41.242Z,100515.48
2019-01-13T18:19:42.885Z,100517.66
2019-01-13T18:24:44.392Z,100531.78
2019-01-13T18:29:46.305Z,100538.79
2019-01-13T18:34:50.456Z,100525.90
2019-01-13T18:39:51.309Z,100543.00
2019-01-13T18:44:52.897Z,100558.41
2019-01-13T18:49:54.892Z,100568.41
2019-01-13T18:54:56.439Z,100555.89
2019-01-13T18:59:58.021Z,100553.52
2019-01-13T19:04:59.618Z,100553.75
2019-01-13T19:10:01.199Z,100557.14
2019-01-13T19:15:05.494Z,100575.67
2019-01-13T19:20:13.284Z,100581.50
2019-01-13T19:25:23.680Z,100576.22
2019-01-13T19:30:25.595Z,100571.66
2019-01-13T19:35:27.147Z,100575.23
2019-01-13T19:40:29.018Z,100578.92
2019-01-13T19:45:31.000Z,100584.09
2019-01-13T19:50:32.629Z,100599.98
2019-01-13T19:55:34.202Z,100593.98
2019-01-13T20:00:36.134Z,100598.89
2019-01-13T20:05:37.687Z,100613.69
2019-01-13T20:10:39.305Z,100614.73
2019-01-13T20:15:40.863Z,100628.52
2019-01-13T20:20:42.484Z,100629.96
2019-01-13T20:25:44.373Z,100637.45
2019-01-13T20:30:46.082Z,100633.70
2019-01-13T20:35:47.770Z,100653.97
2019-01-13T20:40:49.345Z,100657.89
2019-01-13T20:45:50.979Z,100660.26
2019-01-13T20:50:52.615Z,100667.73
2019-01-13T20:55:54.636Z,100669.80
2019-01-13T21:00:56.584Z,100688.03
2019-01-13T21:05:58.301Z,100682.74
2019-01-13T21:11:00.063Z,100685.16
2019-01-13T21:16:02.885Z,100682.05
2019-01-13T21:21:04.440Z,100695.94
2019-01-13T21:26:06.075Z,100703.16
2019-01-13T21:31:08.721Z,100696.86
2019-01-13T21:36:10.299Z,100709.46
2019-01-13T21:41:11.853Z,100712.77
2019-01-13T21:46:13.411Z,100716.89
2019-01-13T21:51:17.975Z,100736.33
2019-01-13T21:56:19.729Z,100733.72
2019-01-13T22:01:24.070Z,100722.36
2019-01-13T22:06:26.132Z,100733.83
2019-01-13T22:11:28.400Z,100732.53
2019-01-13T22:16:30.047Z,100735.52
2019-01-13T22:21:32.905Z,100718.70
2019-01-13T22:26:35.306Z,100739.16
2019-01-13T22:31:36.871Z,100752.92
2019-01-13T22:36:38.514Z,100748.19
2019-01-13T22:41:40.074Z,100752.81
2019-01-13T22:46:41.622Z,100756.78
2019-01-13T22:51:43.138Z,100777.65
2019-01-13T22:56:44.697Z,100771.31
2019-01-13T23:01:46.213Z,100780.98
2019-01-13T23:06:47.778Z,100775.10
2019-01-13T23:11:49.330Z,100787.36
2019-01-13T23:16:50.889Z,100794.70
2019-01-13T23:21:52.469Z,100798.67
2019-01-13T23:26:54.008Z,100789.52
2019-01-13T23:31:55.619Z,100816.55
2019-01-13T23:36:57.192Z,100810.63
2019-01-13T23:41:58.787Z,100810.53
2019-01-13T23:47:00.558Z,100814.55
2019-01-13T23:52:02.050Z,100821.10
2019-01-13T23:57:03.645Z,100817.92
